sensor_id;sensor_type;location;lat;lon;timestamp;pressure;altitude;pressure_sealevel;temperature;humidity
72892;BME280;61032;50.782;6.818;2023-04-28T00:00:17;100217.16;;;13.53;54.29
72892;BME280;61032;50.782;6.818;2023-04-28T00:01:17;100214.84;;;13.55;54.28
72892;BME280;61032;50.782;6.818;2023-04-28T00:02:17;100221.50;;;13.54;54.49
72892;BME280;61032;50.782;6.818;2023-04-28T00:03:18;100213.59;;;13.53;54.60
72892;BME280;61032;50.782;6.818;2023-04-28T00:04:18;100213.59;;;13.53;54.77
72892;BME280;61032;50.782;6.818;2023-04-28T00:05:19;100209.75;;;13.57;54.99
72892;BME280;61032;50.782;6.818;2023-04-28T00:06:20;100211.81;;;13.60;55.35
72892;BME280;61032;50.782;6.818;2023-04-28T00:07:20;100218.94;;;13.61;55.43
72892;BME280;61032;50.782;6.818;2023-04-28T00:08:20;100204.31;;;13.61;55.64
72892;BME280;61032;50.782;6.818;2023-04-28T00:09:22;100218.84;;;13.58;55.90
72892;BME280;61032;50.782;6.818;2023-04-28T00:10:23;100206.09;;;13.53;56.25
72892;BME280;61032;50.782;6.818;2023-04-28T00:11:23;100209.22;;;13.52;56.73
72892;BME280;61032;50.782;6.818;2023-04-28T00:12:23;100215.53;;;13.52;57.41
72892;BME280;61032;50.782;6.818;2023-04-28T00:13:24;100209.31;;;13.55;56.99
72892;BME280;61032;50.782;6.818;2023-04-28T00:14:24;100208.50;;;13.55;56.75
72892;BME280;61032;50.782;6.818;2023-04-28T00:15:25;100209.31;;;13.55;57.31
72892;BME280;61032;50.782;6.818;2023-04-28T00:16:25;100208.50;;;13.55;57.52
72892;BME280;61032;50.782;6.818;2023-04-28T00:17:26;100210.47;;;13.54;57.52
72892;BME280;61032;50.782;6.818;2023-04-28T00:18:26;100197.56;;;13.58;57.69
72892;BME280;61032;50.782;6.818;2023-04-28T00:19:26;100205.47;;;13.60;57.77
72892;BME280;61032;50.782;6.818;2023-04-28T00:20:27;100207.44;;;13.59;58.27
72892;BME280;61032;50.782;6.818;2023-04-28T00:21:27;100201.47;;;13.57;58.30
72892;BME280;61032;50.782;6.818;2023-04-28T00:22:27;100205.25;;;13.49;58.33
72892;BME280;61032;50.782;6.818;2023-04-28T00:23:28;100196.66;;;13.54;59.04
72892;BME280;61032;50.782;6.818;2023-04-28T00:24:28;100197.47;;;13.55;58.86
72892;BME280;61032;50.782;6.818;2023-04-28T00:25:28;100194.53;;;13.48;58.86
72892;BME280;61032;50.782;6.818;2023-04-28T00:26:28;100193.53;;;13.56;58.74
72892;BME280;61032;50.782;6.818;2023-04-28T00:27:29;100190.41;;;13.57;58.89
72892;BME280;61032;50.782;6.818;2023-04-28T00:28:29;100182.69;;;13.47;58.87
72892;BME280;61032;50.782;6.818;2023-04-28T00:29:30;100183.41;;;13.44;59.54
72892;BME280;61032;50.782;6.818;2023-04-28T00:30:30;100186.34;;;13.35;59.68
72892;BME280;61032;50.782;6.818;2023-04-28T00:31:30;100177.69;;;13.37;59.33
72892;BME280;61032;50.782;6.818;2023-04-28T00:32:30;100176.44;;;13.34;59.92
72892;BME280;61032;50.782;6.818;2023-04-28T00:33:31;100169.69;;;13.32;59.93
72892;BME280;61032;50.782;6.818;2023-04-28T00:34:32;100171.84;;;13.23;60.68
72892;BME280;61032;50.782;6.818;2023-04-28T00:35:33;100168.06;;;13.15;60.83
72892;BME280;61032;50.782;6.818;2023-04-28T00:36:33;100169.91;;;13.11;61.43
72892;BME280;61032;50.782;6.818;2023-04-28T00:37:36;100165.75;;;13.17;61.36
72892;BME280;61032;50.782;6.818;2023-04-28T00:38:36;100156.41;;;13.06;61.60
72892;BME280;61032;50.782;6.818;2023-04-28T00:39:37;100162.28;;;13.04;62.32
72892;BME280;61032;50.782;6.818;2023-04-28T00:40:38;100150.53;;;13.07;62.18
72892;BME280;61032;50.782;6.818;2023-04-28T00:41:38;100147.41;;;13.09;62.31
72892;BME280;61032;50.782;6.818;2023-04-28T00:42:38;100152.19;;;13.12;61.63
72892;BME280;61032;50.782;6.818;2023-04-28T00:43:48;100138.69;;;13.07;61.79
72892;BME280;61032;50.782;6.818;2023-04-28T00:44:49;100144.09;;;13.03;62.16
72892;BME280;61032;50.782;6.818;2023-04-28T00:45:50;100145.53;;;12.97;62.05
72892;BME280;61032;50.782;6.818;2023-04-28T00:46:51;100141.50;;;12.95;62.66
72892;BME280;61032;50.782;6.818;2023-04-28T00:47:51;100144.63;;;12.93;62.31
72892;BME280;61032;50.782;6.818;2023-04-28T00:48:52;100139.91;;;12.94;62.77
72892;BME280;61032;50.782;6.818;2023-04-28T00:49:52;100135.88;;;12.91;62.01
72892;BME280;61032;50.782;6.818;2023-04-28T00:50:53;100141.25;;;12.84;62.84
72892;BME280;61032;50.782;6.818;2023-04-28T00:51:53;100139.63;;;12.83;62.88
72892;BME280;61032;50.782;6.818;2023-04-28T00:52:53;100141.94;;;12.81;62.69
72892;BME280;61032;50.782;6.818;2023-04-28T00:53:54;100140.97;;;12.89;62.75
72892;BME280;61032;50.782;6.818;2023-04-28T00:54:56;100140.53;;;12.87;62.65
72892;BME280;61032;50.782;6.818;2023-04-28T00:55:57;100140.59;;;12.91;63.03
72892;BME280;61032;50.782;6.818;2023-04-28T00:56:57;100130.81;;;12.93;62.62
72892;BME280;61032;50.782;6.818;2023-04-28T00:57:58;100128.97;;;12.97;62.78
72892;BME280;61032;50.782;6.818;2023-04-28T00:58:58;100127.34;;;12.96;62.22
72892;BME280;61032;50.782;6.818;2023-04-28T00:59:59;100134.03;;;12.95;62.20
72892;BME280;61032;50.782;6.818;2023-04-28T01:01:06;100129.56;;;12.91;61.96
72892;BME280;61032;50.782;6.818;2023-04-28T01:02:07;100138.47;;;12.84;62.33
72892;BME280;61032;50.782;6.818;2023-04-28T01:03:07;100138.47;;;12.84;62.20
72892;BME280;61032;50.782;6.818;2023-04-28T01:04:08;100133.88;;;12.88;62.26
72892;BME280;61032;50.782;6.818;2023-04-28T01:05:09;100132.88;;;12.96;61.61
72892;BME280;61032;50.782;6.818;2023-04-28T01:06:11;100132.06;;;12.96;61.51
72892;BME280;61032;50.782;6.818;2023-04-28T01:07:11;100134.47;;;12.97;61.10
72892;BME280;61032;50.782;6.818;2023-04-28T01:08:12;100136.69;;;12.92;61.96
72892;BME280;61032;50.782;6.818;2023-04-28T01:09:12;100143.72;;;12.89;62.16
72892;BME280;61032;50.782;6.818;2023-04-28T01:10:12;100136.19;;;12.86;62.02
72892;BME280;61032;50.782;6.818;2023-04-28T01:11:12;100138.59;;;12.88;62.72
72892;BME280;61032;50.782;6.818;2023-04-28T01:12:13;100135.38;;;12.86;62.43
72892;BME280;61032;50.782;6.818;2023-04-28T01:13:13;100131.53;;;12.90;63.04
72892;BME280;61032;50.782;6.818;2023-04-28T01:14:13;100135.44;;;12.89;63.31
72892;BME280;61032;50.782;6.818;2023-04-28T01:15:18;100132.69;;;12.89;63.40
72892;BME280;61032;50.782;6.818;2023-04-28T01:16:19;100142.84;;;12.85;63.78
72892;BME280;61032;50.782;6.818;2023-04-28T01:17:19;100136.19;;;12.86;64.25
72892;BME280;61032;50.782;6.818;2023-04-28T01:18:20;100138.19;;;12.89;64.21
72892;BME280;61032;50.782;6.818;2023-04-28T01:19:21;100131.19;;;12.92;64.58
72892;BME280;61032;50.782;6.818;2023-04-28T01:20:22;100131.97;;;12.92;63.89
72892;BME280;61032;50.782;6.818;2023-04-28T01:21:30;100128.41;;;12.92;64.19
72892;BME280;61032;50.782;6.818;2023-04-28T01:22:31;100130.66;;;12.86;64.68
72892;BME280;61032;50.782;6.818;2023-04-28T01:23:31;100127.97;;;12.90;64.82
72892;BME280;61032;50.782;6.818;2023-04-28T01:24:32;100131.63;;;12.78;64.88
72892;BME280;61032;50.782;6.818;2023-04-28T01:25:32;100137.59;;;12.80;64.85
72892;BME280;61032;50.782;6.818;2023-04-28T01:26:32;100144.00;;;12.84;65.54
72892;BME280;61032;50.782;6.818;2023-04-28T01:27:33;100146.31;;;12.82;65.13
72892;BME280;61032;50.782;6.818;2023-04-28T01:28:33;100138.84;;;12.83;65.10
72892;BME280;61032;50.782;6.818;2023-04-28T01:29:33;100143.28;;;12.87;64.97
72892;BME280;61032;50.782;6.818;2023-04-28T01:30:33;100141.34;;;12.88;65.37
72892;BME280;61032;50.782;6.818;2023-04-28T01:31:34;100132.69;;;12.89;65.33
72892;BME280;61032;50.782;6.818;2023-04-28T01:32:35;100133.88;;;12.88;65.32
72892;BME280;61032;50.782;6.818;2023-04-28T01:33:35;100136.53;;;12.85;65.39
72892;BME280;61032;50.782;6.818;2023-04-28T01:34:36;100134.28;;;12.90;65.69
72892;BME280;61032;50.782;6.818;2023-04-28T01:35:36;100136.34;;;12.93;66.53
72892;BME280;61032;50.782;6.818;2023-04-28T01:36:36;100134.72;;;12.92;66.73
72892;BME280;61032;50.782;6.818;2023-04-28T01:37:36;100131.88;;;12.89;66.36
72892;BME280;61032;50.782;6.818;2023-04-28T01:38:37;100128.75;;;12.90;66.91
72892;BME280;61032;50.782;6.818;2023-04-28T01:39:37;100128.06;;;12.93;67.13
72892;BME280;61032;50.782;6.818;2023-04-28T01:40:37;100125.31;;;12.93;67.52
72892;BME280;61032;50.782;6.818;2023-04-28T01:41:38;100131.97;;;12.92;67.44
72892;BME280;61032;50.782;6.818;2023-04-28T01:42:38;100123.34;;;12.94;67.46
72892;BME280;61032;50.782;6.818;2023-04-28T01:43:38;100119.34;;;12.91;66.62
72892;BME280;61032;50.782;6.818;2023-04-28T01:44:39;100124.69;;;12.84;67.71
72892;BME280;61032;50.782;6.818;2023-04-28T01:45:40;100134.81;;;12.80;68.10
72892;BME280;61032;50.782;6.818;2023-04-28T01:46:40;100128.59;;;12.83;68.38
72892;BME280;61032;50.782;6.818;2023-04-28T01:47:40;100125.03;;;12.83;68.14
72892;BME280;61032;50.782;6.818;2023-04-28T01:48:41;100126.09;;;12.78;68.40
72892;BME280;61032;50.782;6.818;2023-04-28T01:49:41;100130.00;;;12.77;68.62
72892;BME280;61032;50.782;6.818;2023-04-28T01:50:41;100126.69;;;12.71;69.13
72892;BME280;61032;50.782;6.818;2023-04-28T01:51:42;100117.56;;;12.67;69.42
72892;BME280;61032;50.782;6.818;2023-04-28T01:52:42;100122.69;;;12.69;69.41
72892;BME280;61032;50.782;6.818;2023-04-28T01:53:42;100119.56;;;12.70;69.66
72892;BME280;61032;50.782;6.818;2023-04-28T01:54:42;100123.31;;;12.62;69.59
72892;BME280;61032;50.782;6.818;2023-04-28T01:55:43;100119.75;;;12.62;69.58
72892;BME280;61032;50.782;6.818;2023-04-28T01:56:43;100121.88;;;12.68;69.61
72892;BME280;61032;50.782;6.818;2023-04-28T01:57:43;100118.78;;;12.70;69.59
72892;BME280;61032;50.782;6.818;2023-04-28T01:58:43;100122.69;;;12.69;69.61
72892;BME280;61032;50.782;6.818;2023-04-28T01:59:44;100117.63;;;12.71;69.72
72892;BME280;61032;50.782;6.818;2023-04-28T02:00:44;100123.44;;;12.66;69.44
72892;BME280;61032;50.782;6.818;2023-04-28T02:01:45;100118.31;;;12.68;69.27
72892;BME280;61032;50.782;6.818;2023-04-28T02:02:45;100121.53;;;12.70;69.41
72892;BME280;61032;50.782;6.818;2023-04-28T02:03:45;100121.09;;;12.68;69.62
72892;BME280;61032;50.782;6.818;2023-04-28T02:04:47;100117.00;;;12.62;69.41
72892;BME280;61032;50.782;6.818;2023-04-28T02:05:48;100125.97;;;12.59;69.91
72892;BME280;61032;50.782;6.818;2023-04-28T02:06:49;100121.63;;;12.58;69.79
72892;BME280;61032;50.782;6.818;2023-04-28T02:07:49;100124.81;;;12.60;70.02
72892;BME280;61032;50.782;6.818;2023-04-28T02:08:50;100115.91;;;12.51;69.86
72892;BME280;61032;50.782;6.818;2023-04-28T02:09:50;100113.84;;;12.48;69.90
72892;BME280;61032;50.782;6.818;2023-04-28T02:10:50;100119.34;;;12.48;69.94
72892;BME280;61032;50.782;6.818;2023-04-28T02:11:51;100116.59;;;12.48;70.53
72892;BME280;61032;50.782;6.818;2023-04-28T02:12:51;100111.19;;;12.51;70.58
72892;BME280;61032;50.782;6.818;2023-04-28T02:13:51;100112.44;;;12.54;69.85
72892;BME280;61032;50.782;6.818;2023-04-28T02:14:52;100113.78;;;12.60;70.23
72892;BME280;61032;50.782;6.818;2023-04-28T02:15:52;100120.91;;;12.61;70.44
72892;BME280;61032;50.782;6.818;2023-04-28T02:16:52;100121.97;;;12.56;69.60
72892;BME280;61032;50.782;6.818;2023-04-28T02:17:52;100122.31;;;12.55;69.60
72892;BME280;61032;50.782;6.818;2023-04-28T02:18:53;100121.06;;;12.52;69.40
72892;BME280;61032;50.782;6.818;2023-04-28T02:19:54;100119.56;;;12.55;69.42
72892;BME280;61032;50.782;6.818;2023-04-28T02:20:55;100120.00;;;12.57;69.87
72892;BME280;61032;50.782;6.818;2023-04-28T02:21:56;100114.84;;;12.55;69.83
72892;BME280;61032;50.782;6.818;2023-04-28T02:22:56;100115.31;;;12.57;70.19
72892;BME280;61032;50.782;6.818;2023-04-28T02:23:56;100121.16;;;12.56;70.10
72892;BME280;61032;50.782;6.818;2023-04-28T02:24:56;100113.69;;;12.56;69.90
72892;BME280;61032;50.782;6.818;2023-04-28T02:26:00;100110.69;;;12.61;69.92
72892;BME280;61032;50.782;6.818;2023-04-28T02:27:01;100117.56;;;12.67;70.05
72892;BME280;61032;50.782;6.818;2023-04-28T02:28:01;100111.94;;;12.64;69.67
72892;BME280;61032;50.782;6.818;2023-04-28T02:29:02;100115.50;;;12.64;69.95
72892;BME280;61032;50.782;6.818;2023-04-28T02:30:05;100112.38;;;12.66;70.18
72892;BME280;61032;50.782;6.818;2023-04-28T02:31:10;100124.13;;;12.63;70.35
72892;BME280;61032;50.782;6.818;2023-04-28T02:32:10;100113.09;;;12.63;70.42
72892;BME280;61032;50.782;6.818;2023-04-28T02:33:10;100109.19;;;12.64;69.74
72892;BME280;61032;50.782;6.818;2023-04-28T02:34:17;100106.13;;;12.69;69.93
72892;BME280;61032;50.782;6.818;2023-04-28T02:35:17;100112.09;;;12.71;70.41
72892;BME280;61032;50.782;6.818;2023-04-28T02:36:17;100123.59;;;12.73;70.31
72892;BME280;61032;50.782;6.818;2023-04-28T02:37:18;100123.94;;;12.71;70.86
72892;BME280;61032;50.782;6.818;2023-04-28T02:38:18;100125.19;;;12.74;69.87
72892;BME280;61032;50.782;6.818;2023-04-28T02:39:18;100124.22;;;12.66;70.62
72892;BME280;61032;50.782;6.818;2023-04-28T02:40:21;100125.03;;;12.67;69.85
72892;BME280;61032;50.782;6.818;2023-04-28T02:41:21;100118.63;;;12.63;69.99
72892;BME280;61032;50.782;6.818;2023-04-28T02:42:22;100124.13;;;12.63;70.81
72892;BME280;61032;50.782;6.818;2023-04-28T02:43:22;100124.13;;;12.63;70.89
72892;BME280;61032;50.782;6.818;2023-04-28T02:44:22;100131.94;;;12.61;70.55
72892;BME280;61032;50.782;6.818;2023-04-28T02:45:23;100120.00;;;12.57;70.57
72892;BME280;61032;50.782;6.818;2023-04-28T02:46:23;100115.31;;;12.57;71.09
72892;BME280;61032;50.782;6.818;2023-04-28T02:47:23;100117.81;;;12.62;71.73
72892;BME280;61032;50.782;6.818;2023-04-28T02:48:24;100121.03;;;12.64;71.93
72892;BME280;61032;50.782;6.818;2023-04-28T02:49:24;100117.00;;;12.62;71.65
72892;BME280;61032;50.782;6.818;2023-04-28T02:50:25;100108.63;;;12.58;72.21
72892;BME280;61032;50.782;6.818;2023-04-28T02:51:25;100113.13;;;12.51;72.81
72892;BME280;61032;50.782;6.818;2023-04-28T02:52:25;100108.44;;;12.51;73.12
72892;BME280;61032;50.782;6.818;2023-04-28T02:53:26;100108.09;;;12.53;72.70
72892;BME280;61032;50.782;6.818;2023-04-28T02:54:26;100109.69;;;12.54;73.04
72892;BME280;61032;50.782;6.818;2023-04-28T02:55:27;100107.63;;;12.51;73.44
72892;BME280;61032;50.782;6.818;2023-04-28T02:56:27;100104.75;;;12.47;73.75
72892;BME280;61032;50.782;6.818;2023-04-28T02:57:29;100103.25;;;12.50;74.40
72892;BME280;61032;50.782;6.818;2023-04-28T02:58:29;100101.66;;;12.49;74.23
72892;BME280;61032;50.782;6.818;2023-04-28T02:59:30;100099.19;;;12.44;74.69
72892;BME280;61032;50.782;6.818;2023-04-28T03:00:30;100101.59;;;12.45;74.92
72892;BME280;61032;50.782;6.818;2023-04-28T03:01:30;100101.66;;;12.49;75.01
72892;BME280;61032;50.782;6.818;2023-04-28T03:02:31;100096.88;;;12.46;75.56
72892;BME280;61032;50.782;6.818;2023-04-28T03:03:31;100089.75;;;12.45;75.47
72892;BME280;61032;50.782;6.818;2023-04-28T03:04:31;100097.22;;;12.44;75.98
72892;BME280;61032;50.782;6.818;2023-04-28T03:05:32;100100.03;;;12.32;76.86
72892;BME280;61032;50.782;6.818;2023-04-28T03:06:32;100090.16;;;12.31;76.80
72892;BME280;61032;50.782;6.818;2023-04-28T03:07:33;100096.47;;;12.31;76.65
72892;BME280;61032;50.782;6.818;2023-04-28T03:08:33;100091.59;;;12.25;76.01
72892;BME280;61032;50.782;6.818;2023-04-28T03:09:33;100092.28;;;12.22;76.68
72892;BME280;61032;50.782;6.818;2023-04-28T03:10:34;100089.63;;;12.25;77.12
72892;BME280;61032;50.782;6.818;2023-04-28T03:11:34;100088.81;;;12.25;76.99
72892;BME280;61032;50.782;6.818;2023-04-28T03:12:34;100078.59;;;12.25;77.02
72892;BME280;61032;50.782;6.818;2023-04-28T03:13:36;100080.97;;;12.27;77.07
72892;BME280;61032;50.782;6.818;2023-04-28T03:14:36;100075.47;;;12.27;76.79
72892;BME280;61032;50.782;6.818;2023-04-28T03:15:36;100075.13;;;12.28;76.99
72892;BME280;61032;50.782;6.818;2023-04-28T03:16:37;100072.91;;;12.34;76.00
72892;BME280;61032;50.782;6.818;2023-04-28T03:17:37;100073.50;;;12.27;75.35
72892;BME280;61032;50.782;6.818;2023-04-28T03:18:38;100070.75;;;12.27;75.48
72892;BME280;61032;50.782;6.818;2023-04-28T03:19:38;100069.94;;;12.27;75.46
72892;BME280;61032;50.782;6.818;2023-04-28T03:20:38;100071.03;;;12.22;75.34
72892;BME280;61032;50.782;6.818;2023-04-28T03:21:39;100073.09;;;12.25;75.82
72892;BME280;61032;50.782;6.818;2023-04-28T03:22:39;100063.75;;;12.30;75.21
72892;BME280;61032;50.782;6.818;2023-04-28T03:23:39;100059.03;;;12.30;75.02
72892;BME280;61032;50.782;6.818;2023-04-28T03:24:40;100061.41;;;12.16;75.48
72892;BME280;61032;50.782;6.818;2023-04-28T03:25:41;100058.09;;;12.11;75.64
72892;BME280;61032;50.782;6.818;2023-04-28T03:26:41;100051.63;;;12.19;75.37
72892;BME280;61032;50.782;6.818;2023-04-28T03:27:41;100054.41;;;12.19;75.50
72892;BME280;61032;50.782;6.818;2023-04-28T03:28:41;100048.44;;;12.17;75.11
72892;BME280;61032;50.782;6.818;2023-04-28T03:29:42;100052.91;;;12.21;75.19
72892;BME280;61032;50.782;6.818;2023-04-28T03:30:42;100051.28;;;12.20;75.01
72892;BME280;61032;50.782;6.818;2023-04-28T03:31:43;100048.69;;;12.12;74.44
72892;BME280;61032;50.782;6.818;2023-04-28T03:32:43;100041.47;;;12.07;74.90
72892;BME280;61032;50.782;6.818;2023-04-28T03:33:43;100041.91;;;12.09;74.73
72892;BME280;61032;50.782;6.818;2023-04-28T03:34:46;100033.19;;;12.07;74.08
72892;BME280;61032;50.782;6.818;2023-04-28T03:35:46;100035.69;;;12.12;74.05
72892;BME280;61032;50.782;6.818;2023-04-28T03:36:46;100030.66;;;12.14;74.36
72892;BME280;61032;50.782;6.818;2023-04-28T03:37:47;100026.63;;;12.12;74.20
72892;BME280;61032;50.782;6.818;2023-04-28T03:38:48;100021.75;;;12.05;74.35
72892;BME280;61032;50.782;6.818;2023-04-28T03:39:48;100020.38;;;11.99;74.53
72892;BME280;61032;50.782;6.818;2023-04-28T03:40:48;100016.13;;;12.01;74.06
72892;BME280;61032;50.782;6.818;2023-04-28T03:41:49;100015.59;;;11.96;74.67
72892;BME280;61032;50.782;6.818;2023-04-28T03:42:49;100020.63;;;11.94;74.28
72892;BME280;61032;50.782;6.818;2023-04-28T03:43:50;100023.38;;;11.94;74.32
72892;BME280;61032;50.782;6.818;2023-04-28T03:44:51;100021.22;;;11.87;74.73
72892;BME280;61032;50.782;6.818;2023-04-28T03:45:51;100023.63;;;11.89;75.10
72892;BME280;61032;50.782;6.818;2023-04-28T03:46:52;100028.56;;;11.95;75.03
72892;BME280;61032;50.782;6.818;2023-04-28T03:47:52;100028.66;;;11.99;74.79
72892;BME280;61032;50.782;6.818;2023-04-28T03:48:52;100025.47;;;11.85;75.05
72892;BME280;61032;50.782;6.818;2023-04-28T03:49:53;100022.38;;;11.86;75.30
72892;BME280;61032;50.782;6.818;2023-04-28T03:50:53;100030.41;;;11.91;74.93
72892;BME280;61032;50.782;6.818;2023-04-28T03:51:53;100017.94;;;11.82;74.67
72892;BME280;61032;50.782;6.818;2023-04-28T03:52:53;100020.06;;;11.88;75.19
72892;BME280;61032;50.782;6.818;2023-04-28T03:53:54;100020.25;;;11.80;75.27
72892;BME280;61032;50.782;6.818;2023-04-28T03:54:55;100015.88;;;11.79;74.68
72892;BME280;61032;50.782;6.818;2023-04-28T03:55:55;100013.25;;;11.82;74.46
72892;BME280;61032;50.782;6.818;2023-04-28T03:56:55;100005.06;;;11.86;74.46
72892;BME280;61032;50.782;6.818;2023-04-28T03:57:56;100015.25;;;11.85;74.34
72892;BME280;61032;50.782;6.818;2023-04-28T03:58:57;100011.47;;;11.90;74.19
72892;BME280;61032;50.782;6.818;2023-04-28T03:59:57;100006.75;;;11.90;73.81
72892;BME280;61032;50.782;6.818;2023-04-28T04:00:57;100004.81;;;11.91;74.04
72892;BME280;61032;50.782;6.818;2023-04-28T04:01:59;100003.19;;;11.90;74.15
72892;BME280;61032;50.782;6.818;2023-04-28T04:03:00;100010.78;;;11.93;74.17
72892;BME280;61032;50.782;6.818;2023-04-28T04:04:00;100001.69;;;11.92;73.97
72892;BME280;61032;50.782;6.818;2023-04-28T04:05:01;100000.56;;;11.93;73.46
72892;BME280;61032;50.782;6.818;2023-04-28T04:06:01;100001.34;;;11.94;73.75
72892;BME280;61032;50.782;6.818;2023-04-28T04:07:01;99996.75;;;11.98;74.06
72892;BME280;61032;50.782;6.818;2023-04-28T04:08:03;99992.94;;;12.02;73.54
72892;BME280;61032;50.782;6.818;2023-04-28T04:09:05;99992.88;;;11.87;73.91
72892;BME280;61032;50.782;6.818;2023-04-28T04:10:05;99984.72;;;11.90;73.89
72892;BME280;61032;50.782;6.818;2023-04-28T04:11:06;99991.03;;;11.91;73.32
72892;BME280;61032;50.782;6.818;2023-04-28T04:12:07;99983.91;;;11.90;73.61
72892;BME280;61032;50.782;6.818;2023-04-28T04:13:07;99985.97;;;11.93;73.80
72892;BME280;61032;50.782;6.818;2023-04-28T04:14:07;99987.13;;;11.92;73.48
72892;BME280;61032;50.782;6.818;2023-04-28T04:15:08;99982.06;;;11.94;73.75
72892;BME280;61032;50.782;6.818;2023-04-28T04:16:08;99981.28;;;11.93;73.65
72892;BME280;61032;50.782;6.818;2023-04-28T04:17:09;99977.38;;;11.94;74.18
72892;BME280;61032;50.782;6.818;2023-04-28T04:18:09;99977.38;;;11.94;73.95
72892;BME280;61032;50.782;6.818;2023-04-28T04:19:10;99972.19;;;11.93;73.74
72892;BME280;61032;50.782;6.818;2023-04-28T04:20:10;99975.16;;;12.00;74.02
72892;BME280;61032;50.782;6.818;2023-04-28T04:21:10;99964.13;;;12.00;74.38
72892;BME280;61032;50.782;6.818;2023-04-28T04:22:11;99960.03;;;11.94;74.66
72892;BME280;61032;50.782;6.818;2023-04-28T04:23:11;99972.56;;;11.91;74.41
72892;BME280;61032;50.782;6.818;2023-04-28T04:24:11;99969.25;;;11.86;74.75
72892;BME280;61032;50.782;6.818;2023-04-28T04:25:12;99982.13;;;11.82;75.57
72892;BME280;61032;50.782;6.818;2023-04-28T04:26:12;99980.53;;;11.81;75.13
72892;BME280;61032;50.782;6.818;2023-04-28T04:27:13;99983.75;;;11.83;74.98
72892;BME280;61032;50.782;6.818;2023-04-28T04:28:13;99976.63;;;11.82;75.44
72892;BME280;61032;50.782;6.818;2023-04-28T04:29:13;99979.56;;;11.89;75.35
72892;BME280;61032;50.782;6.818;2023-04-28T04:30:14;99991.22;;;11.82;75.26
72892;BME280;61032;50.782;6.818;2023-04-28T04:31:14;99988.19;;;11.87;75.03
72892;BME280;61032;50.782;6.818;2023-04-28T04:32:15;99992.53;;;11.88;74.72
72892;BME280;61032;50.782;6.818;2023-04-28T04:33:15;99988.38;;;11.94;74.99
72892;BME280;61032;50.782;6.818;2023-04-28T04:34:15;99998.59;;;11.94;74.49
72892;BME280;61032;50.782;6.818;2023-04-28T04:35:16;99998.81;;;12.01;74.36
72892;BME280;61032;50.782;6.818;2023-04-28T04:36:16;100005.25;;;11.93;74.34
72892;BME280;61032;50.782;6.818;2023-04-28T04:37:17;99999.53;;;11.86;74.47
72892;BME280;61032;50.782;6.818;2023-04-28T04:38:18;99994.31;;;11.81;75.05
72892;BME280;61032;50.782;6.818;2023-04-28T04:39:18;99985.69;;;11.82;75.16
72892;BME280;61032;50.782;6.818;2023-04-28T04:40:21;99996.78;;;11.86;74.73
72892;BME280;61032;50.782;6.818;2023-04-28T04:41:25;99999.28;;;11.91;75.13
72892;BME280;61032;50.782;6.818;2023-04-28T04:42:26;99999.75;;;11.93;74.92
72892;BME280;61032;50.782;6.818;2023-04-28T04:43:26;100003.31;;;11.93;74.71
72892;BME280;61032;50.782;6.818;2023-04-28T04:44:26;100000.91;;;11.92;75.19
72892;BME280;61032;50.782;6.818;2023-04-28T04:45:27;100006.50;;;11.95;75.02
72892;BME280;61032;50.782;6.818;2023-04-28T04:46:27;100009.72;;;11.97;74.61
72892;BME280;61032;50.782;6.818;2023-04-28T04:48:29;100008.00;;;11.93;74.85
72892;BME280;61032;50.782;6.818;2023-04-28T04:49:30;100016.63;;;11.91;74.89
72892;BME280;61032;50.782;6.818;2023-04-28T04:50:30;100016.63;;;11.91;74.91
72892;BME280;61032;50.782;6.818;2023-04-28T04:51:31;100013.97;;;11.95;74.19
72892;BME280;61032;50.782;6.818;2023-04-28T04:52:31;100015.81;;;11.91;73.89
72892;BME280;61032;50.782;6.818;2023-04-28T04:53:31;100021.34;;;11.91;73.95
72892;BME280;61032;50.782;6.818;2023-04-28T04:54:32;100027.47;;;11.84;74.51
72892;BME280;61032;50.782;6.818;2023-04-28T04:55:32;100025.84;;;11.83;75.01
72892;BME280;61032;50.782;6.818;2023-04-28T04:56:32;100018.56;;;11.91;74.87
72892;BME280;61032;50.782;6.818;2023-04-28T04:57:33;100017.31;;;11.88;74.34
72892;BME280;61032;50.782;6.818;2023-04-28T04:58:33;100017.50;;;11.80;74.84
72892;BME280;61032;50.782;6.818;2023-04-28T04:59:33;100020.94;;;11.77;74.85
72892;BME280;61032;50.782;6.818;2023-04-28T05:00:34;100016.06;;;11.86;75.03
72892;BME280;61032;50.782;6.818;2023-04-28T05:01:36;100024.59;;;11.81;74.71
72892;BME280;61032;50.782;6.818;2023-04-28T05:02:36;100017.94;;;11.82;75.23
72892;BME280;61032;50.782;6.818;2023-04-28T05:03:36;100024.31;;;11.86;75.17
72892;BME280;61032;50.782;6.818;2023-04-28T05:04:37;100016.97;;;11.90;75.19
72892;BME280;61032;50.782;6.818;2023-04-28T05:05:37;100020.63;;;11.94;74.96
72892;BME280;61032;50.782;6.818;2023-04-28T05:06:38;100019.25;;;12.00;75.21
72892;BME280;61032;50.782;6.818;2023-04-28T05:07:39;100018.34;;;11.96;75.04
72892;BME280;61032;50.782;6.818;2023-04-28T05:08:40;100016.03;;;11.98;75.15
72892;BME280;61032;50.782;6.818;2023-04-28T05:09:40;100020.28;;;11.95;75.02
72892;BME280;61032;50.782;6.818;2023-04-28T05:10:40;100016.03;;;11.98;75.01
72892;BME280;61032;50.782;6.818;2023-04-28T05:11:41;100017.88;;;11.94;75.20
72892;BME280;61032;50.782;6.818;2023-04-28T05:12:41;100020.63;;;11.94;75.67
72892;BME280;61032;50.782;6.818;2023-04-28T05:13:43;100025.94;;;11.87;75.93
72892;BME280;61032;50.782;6.818;2023-04-28T05:14:43;100023.53;;;11.85;76.15
72892;BME280;61032;50.782;6.818;2023-04-28T05:15:44;100019.28;;;11.88;76.08
72892;BME280;61032;50.782;6.818;2023-04-28T05:16:44;100019.19;;;11.84;76.14
72892;BME280;61032;50.782;6.818;2023-04-28T05:17:45;100026.22;;;11.82;75.54